Centerville, Georgia
Current Conditions -  °F | °C
As of 9:58 PM on Sunday 23 Nov 2014 (Local Time) from KWRB Reporting Station
Overcast Overcast  
Wind Chill: 65°   Ceiling: 1500
Heat Index: 65°   Visibility: 10mi
Dew Point: 62°   Wind: 13mph
Humidity: 90%   Direction: 190°S
Pressure: 29.78"   Gusts: NA
Location:  32.63°N, 83.69°W
Report Text: KWRB 240258Z AUTO 19011KT 10SM OVC015 18/17 A2978 RMK AO2 OVC V BKN SLP086 T01810165 51015
Loading
Personal Weather Stations






























Interactive Weather Map New forecast layout! Learn more

10-Day Weather Forecast

Advertisements
Track Severe Weather on mobile